Terminal Aerodrome Forecast
Issued by NWS

Home | Current Version | Previous Version | Text Only | Print | Product List | Glossary On
Versions: 1 2 3 4 5 6 7 8 9 10 11 12 13 14 15 16 17 18 19 20 21 22 23 24 25 26 27 28
000
FTUS43 KGRB 182338
TAFATW
TAF
KATW 182338Z 1900/1924 17014G22KT P6SM BKN120 WS020/21055KT
     FM190400 18012KT P6SM BKN120 WS018/21050KT
     FM191100 16004KT 5SM BR OVC070
     FM191500 05009KT 4SM -RA BR OVC018
     FM192000 04014G22KT 4SM -FZRA BR OVC006=

USA.gov is the U.S. government's official web portal to all federal, state and local government web resources and services.